Time,TemperatureF,DewpointF,PressureIn,WindDirection,WindDirectionDegrees,WindSpeedMPH,WindSpeedGustMPH,Humidity,HourlyPrecipIn,Conditions,Clouds,dailyrainin,SolarRadiationWatts/m^2,SoftwareType,DateUTC
2013-03-08 00:01:00,73.0,59.0,-100.00,NE,49,2.0,5.0,61,0.00,,,0.00,0.000000,,2013-03-08 10:01:00,
2013-03-08 00:11:00,73.0,59.0,-100.00,NE,49,2.0,5.0,61,0.00,,,0.00,0.000000,,2013-03-08 10:11:00,
2013-03-08 00:21:00,73.0,59.0,-100.00,NE,49,2.0,5.0,61,0.00,,,0.00,0.000000,,2013-03-08 10:21:00,
2013-03-08 00:42:00,72.0,58.0,-100.00,East,86,1.0,4.0,62,0.00,,,0.00,0.000000,,2013-03-08 10:42:00,
2013-03-08 00:52:00,72.0,58.0,-100.00,East,86,1.0,4.0,62,0.00,,,0.00,0.000000,,2013-03-08 10:52:00,
2013-03-08 01:01:00,72.0,58.0,-100.00,East,86,1.0,4.0,62,0.00,,,0.00,0.000000,,2013-03-08 11:01:00,
2013-03-08 01:11:00,72.0,58.0,-100.00,East,86,1.0,4.0,62,0.00,,,0.00,0.000000,,2013-03-08 11:11:00,
2013-03-08 01:21:00,72.0,58.0,-100.00,East,86,1.0,4.0,62,0.00,,,0.00,0.000000,,2013-03-08 11:21:00,
2013-03-08 01:22:00,71.0,58.0,-100.00,East,79,2.0,4.0,64,0.00,,,0.00,0.000000,,2013-03-08 11:22:00,
2013-03-08 01:42:00,71.0,58.0,-100.00,East,79,2.0,4.0,64,0.00,,,0.00,0.000000,,2013-03-08 11:42:00,
2013-03-08 01:52:00,71.0,58.0,-100.00,East,79,2.0,4.0,64,0.00,,,0.00,0.000000,,2013-03-08 11:52:00,
2013-03-08 02:01:00,71.0,58.0,-100.00,East,79,2.0,4.0,64,0.00,,,0.00,0.000000,,2013-03-08 12:01:00,
2013-03-08 02:11:00,71.0,58.0,-100.00,East,79,2.0,4.0,64,0.00,,,0.00,0.000000,,2013-03-08 12:11:00,
2013-03-08 02:43:00,69.0,54.0,-100.00,ENE,62,3.0,8.0,58,0.00,,,0.00,0.000000,,2013-03-08 12:43:00,
2013-03-08 02:52:00,69.0,54.0,-100.00,ENE,62,3.0,8.0,58,0.00,,,0.00,0.000000,,2013-03-08 12:52:00,
2013-03-08 03:01:00,69.0,54.0,-100.00,ENE,62,3.0,8.0,58,0.00,,,0.00,0.000000,,2013-03-08 13:01:00,
2013-03-08 03:11:00,69.0,54.0,-100.00,ENE,62,3.0,8.0,58,0.00,,,0.00,0.000000,,2013-03-08 13:11:00,
2013-03-08 03:21:00,69.0,54.0,-100.00,ENE,62,3.0,8.0,58,0.00,,,0.00,0.000000,,2013-03-08 13:21:00,
2013-03-08 03:42:00,68.0,55.0,-100.00,ENE,77,3.0,7.0,63,0.00,,,0.00,0.000000,,2013-03-08 13:42:00,
2013-03-08 03:52:00,68.0,55.0,-100.00,ENE,77,3.0,7.0,63,0.00,,,0.00,0.000000,,2013-03-08 13:52:00,
2013-03-08 04:02:00,68.0,55.0,-100.00,ENE,77,3.0,7.0,63,0.00,,,0.00,0.000000,,2013-03-08 14:02:00,
2013-03-08 04:11:00,68.0,55.0,-100.00,ENE,77,3.0,7.0,63,0.00,,,0.00,0.000000,,2013-03-08 14:11:00,
2013-03-08 04:21:00,68.0,55.0,-100.00,ENE,77,3.0,7.0,63,0.00,,,0.00,0.000000,,2013-03-08 14:21:00,
2013-03-08 04:42:00,67.0,52.0,-100.00,East,89,3.0,7.0,59,0.00,,,0.00,0.000000,,2013-03-08 14:42:00,
2013-03-08 04:52:00,67.0,52.0,-100.00,East,89,3.0,7.0,59,0.00,,,0.00,0.000000,,2013-03-08 14:52:00,
2013-03-08 05:02:00,67.0,52.0,-100.00,East,89,3.0,7.0,59,0.00,,,0.00,0.000000,,2013-03-08 15:02:00,
2013-03-08 05:11:00,67.0,52.0,-100.00,East,89,3.0,7.0,59,0.00,,,0.00,0.000000,,2013-03-08 15:11:00,
2013-03-08 05:21:00,67.0,52.0,-100.00,East,89,3.0,7.0,59,0.00,,,0.00,0.000000,,2013-03-08 15:21:00,
2013-03-08 05:43:00,67.0,50.0,-100.00,East,80,3.0,7.0,55,0.00,,,-99.99,0.000000,,2013-03-08 15:43:00,
2013-03-08 05:53:00,67.0,50.0,-100.00,East,80,3.0,7.0,55,0.00,,,-99.99,0.000000,,2013-03-08 15:53:00,
2013-03-08 06:01:00,67.0,50.0,-100.00,East,80,3.0,7.0,55,0.00,,,-99.99,0.000000,,2013-03-08 16:01:00,
2013-03-08 06:11:00,67.0,50.0,-100.00,East,80,3.0,7.0,55,0.00,,,-99.99,0.000000,,2013-03-08 16:11:00,
2013-03-08 06:21:00,67.0,50.0,-100.00,East,80,3.0,7.0,55,0.00,,,-99.99,0.000000,,2013-03-08 16:21:00,
2013-03-08 06:42:00,66.0,50.0,-100.00,East,82,3.0,8.0,56,0.00,,,0.00,0.000000,,2013-03-08 16:42:00,
2013-03-08 06:52:00,66.0,50.0,-100.00,East,82,3.0,8.0,56,0.00,,,0.00,0.000000,,2013-03-08 16:52:00,
2013-03-08 07:02:00,66.0,50.0,-100.00,East,82,3.0,8.0,56,0.00,,,0.00,0.000000,,2013-03-08 17:02:00,
2013-03-08 07:11:00,66.0,50.0,-100.00,East,82,3.0,8.0,56,0.00,,,0.00,0.000000,,2013-03-08 17:11:00,
2013-03-08 07:21:00,66.0,50.0,-100.00,East,82,3.0,8.0,56,0.00,,,0.00,0.000000,,2013-03-08 17:21:00,
2013-03-08 07:42:00,66.0,49.0,-100.00,ENE,74,4.0,7.0,55,0.00,,,0.00,3.000000,,2013-03-08 17:42:00,
2013-03-08 07:52:00,66.0,49.0,-100.00,ENE,74,4.0,7.0,55,0.00,,,0.00,3.000000,,2013-03-08 17:52:00,
2013-03-08 08:01:00,66.0,49.0,-100.00,ENE,74,4.0,7.0,55,0.00,,,0.00,3.000000,,2013-03-08 18:01:00,
2013-03-08 08:11:00,66.0,49.0,-100.00,ENE,74,4.0,7.0,55,0.00,,,0.00,3.000000,,2013-03-08 18:11:00,
2013-03-08 08:21:00,66.0,49.0,-100.00,ENE,74,4.0,7.0,55,0.00,,,0.00,3.000000,,2013-03-08 18:21:00,
2013-03-08 08:42:00,69.0,46.0,-100.00,East,81,3.0,7.0,44,0.00,,,0.00,127.000000,,2013-03-08 18:42:00,
2013-03-08 08:52:00,69.0,46.0,-100.00,East,81,3.0,7.0,44,0.00,,,0.00,127.000000,,2013-03-08 18:52:00,
2013-03-08 09:01:00,69.0,46.0,-100.00,East,81,3.0,7.0,44,0.00,,,0.00,127.000000,,2013-03-08 19:01:00,
2013-03-08 09:11:00,69.0,46.0,-100.00,East,81,3.0,7.0,44,0.00,,,0.00,127.000000,,2013-03-08 19:11:00,
2013-03-08 09:21:00,69.0,46.0,-100.00,East,81,3.0,7.0,44,0.00,,,0.00,127.000000,,2013-03-08 19:21:00,
2013-03-08 09:42:00,76.0,54.0,-100.00,SW,223,2.0,5.0,47,0.00,,,0.00,354.000000,,2013-03-08 19:42:00,
2013-03-08 09:52:00,76.0,54.0,-100.00,SW,223,2.0,5.0,47,0.00,,,0.00,354.000000,,2013-03-08 19:52:00,
2013-03-08 10:01:00,76.0,54.0,-100.00,SW,223,2.0,5.0,47,0.00,,,0.00,354.000000,,2013-03-08 20:01:00,
2013-03-08 10:11:00,76.0,54.0,-100.00,SW,223,2.0,5.0,47,0.00,,,0.00,354.000000,,2013-03-08 20:11:00,
2013-03-08 10:21:00,76.0,54.0,-100.00,SW,223,2.0,5.0,47,0.00,,,0.00,354.000000,,2013-03-08 20:21:00,
2013-03-08 10:42:00,76.0,58.0,-100.00,West,269,3.0,8.0,53,0.00,,,0.00,574.000000,,2013-03-08 20:42:00,
2013-03-08 10:53:00,76.0,58.0,-100.00,West,269,3.0,8.0,53,0.00,,,0.00,574.000000,,2013-03-08 20:53:00,
2013-03-08 11:01:00,76.0,58.0,-100.00,West,269,3.0,8.0,53,0.00,,,0.00,574.000000,,2013-03-08 21:01:00,
2013-03-08 11:11:00,76.0,58.0,-100.00,West,269,3.0,8.0,53,0.00,,,0.00,574.000000,,2013-03-08 21:11:00,
2013-03-08 11:21:00,76.0,58.0,-100.00,West,269,3.0,8.0,53,0.00,,,0.00,574.000000,,2013-03-08 21:21:00,
2013-03-08 11:42:00,77.0,60.0,-100.00,West,270,4.0,9.0,55,0.00,,,0.00,749.000000,,2013-03-08 21:42:00,
2013-03-08 11:52:00,77.0,60.0,-100.00,West,270,4.0,9.0,55,0.00,,,0.00,749.000000,,2013-03-08 21:52:00,
2013-03-08 12:01:00,77.0,60.0,-100.00,West,270,4.0,9.0,55,0.00,,,0.00,749.000000,,2013-03-08 22:01:00,
2013-03-08 12:11:00,77.0,60.0,-100.00,West,270,4.0,9.0,55,0.00,,,0.00,749.000000,,2013-03-08 22:11:00,
2013-03-08 12:21:00,77.0,60.0,-100.00,West,270,4.0,9.0,55,0.00,,,0.00,749.000000,,2013-03-08 22:21:00,
2013-03-08 12:42:00,78.0,61.0,-100.00,West,270,4.0,9.0,55,0.00,,,0.00,823.000000,,2013-03-08 22:42:00,
2013-03-08 12:52:00,78.0,61.0,-100.00,West,270,4.0,9.0,55,0.00,,,0.00,823.000000,,2013-03-08 22:52:00,
2013-03-08 13:01:00,78.0,61.0,-100.00,West,270,4.0,9.0,55,0.00,,,0.00,823.000000,,2013-03-08 23:01:00,
2013-03-08 13:11:00,78.0,61.0,-100.00,West,270,4.0,9.0,55,0.00,,,0.00,823.000000,,2013-03-08 23:11:00,
2013-03-08 13:21:00,78.0,61.0,-100.00,West,270,4.0,9.0,55,0.00,,,0.00,823.000000,,2013-03-08 23:21:00,
2013-03-08 13:42:00,77.0,62.0,-100.00,West,272,4.0,9.0,59,0.00,,,0.00,426.000000,,2013-03-08 23:42:00,
2013-03-08 13:52:00,77.0,62.0,-100.00,West,272,4.0,9.0,59,0.00,,,0.00,426.000000,,2013-03-08 23:52:00,
2013-03-08 14:01:00,77.0,62.0,-100.00,West,272,4.0,9.0,59,0.00,,,0.00,426.000000,,2013-03-09 00:01:00,
2013-03-08 14:11:00,77.0,62.0,-100.00,West,272,4.0,9.0,59,0.00,,,0.00,426.000000,,2013-03-09 00:11:00,
2013-03-08 14:21:00,77.0,62.0,-100.00,West,272,4.0,9.0,59,0.00,,,0.00,426.000000,,2013-03-09 00:21:00,
2013-03-08 14:42:00,76.0,60.0,-100.00,West,269,4.0,8.0,58,0.00,,,0.00,352.000000,,2013-03-09 00:42:00,
2013-03-08 14:52:00,76.0,60.0,-100.00,West,269,4.0,8.0,58,0.00,,,0.00,352.000000,,2013-03-09 00:52:00,
2013-03-08 15:01:00,76.0,60.0,-100.00,West,269,4.0,8.0,58,0.00,,,0.00,352.000000,,2013-03-09 01:01:00,
2013-03-08 15:12:00,76.0,60.0,-100.00,West,269,4.0,8.0,58,0.00,,,0.00,352.000000,,2013-03-09 01:12:00,
2013-03-08 15:21:00,76.0,60.0,-100.00,West,269,4.0,8.0,58,0.00,,,0.00,352.000000,,2013-03-09 01:21:00,
2013-03-08 17:42:00,78.0,61.0,-100.00,West,271,4.0,10.0,55,-99.99,,,0.00,385.000000,,2013-03-09 03:42:00,
2013-03-08 17:52:00,78.0,61.0,-100.00,West,271,4.0,10.0,55,-99.99,,,0.00,385.000000,,2013-03-09 03:52:00,
2013-03-08 18:01:00,78.0,61.0,-100.00,West,271,4.0,10.0,55,-99.99,,,0.00,385.000000,,2013-03-09 04:01:00,
2013-03-08 18:11:00,78.0,61.0,-100.00,West,271,4.0,10.0,55,-99.99,,,0.00,385.000000,,2013-03-09 04:11:00,
2013-03-08 18:21:00,78.0,61.0,-100.00,West,271,4.0,10.0,55,-99.99,,,0.00,385.000000,,2013-03-09 04:21:00,
2013-03-08 18:42:00,77.0,62.0,-100.00,West,272,4.0,9.0,59,0.00,,,0.00,175.000000,,2013-03-09 04:42:00,
2013-03-08 18:52:00,77.0,62.0,-100.00,West,272,4.0,9.0,59,0.00,,,0.00,175.000000,,2013-03-09 04:52:00,
2013-03-08 19:01:00,77.0,62.0,-100.00,West,272,4.0,9.0,59,0.00,,,0.00,175.000000,,2013-03-09 05:01:00,
2013-03-08 19:11:00,77.0,62.0,-100.00,West,272,4.0,9.0,59,0.00,,,0.00,175.000000,,2013-03-09 05:11:00,
2013-03-08 19:21:00,77.0,62.0,-100.00,West,272,4.0,9.0,59,0.00,,,0.00,175.000000,,2013-03-09 05:21:00,
2013-03-08 19:22:00,75.0,63.0,-100.00,SW,232,2.0,5.0,66,0.00,,,0.00,16.000000,,2013-03-09 05:22:00,
2013-03-08 19:43:00,75.0,63.0,-100.00,SW,232,2.0,5.0,66,0.00,,,0.00,16.000000,,2013-03-09 05:43:00,
2013-03-08 19:53:00,75.0,63.0,-100.00,SW,232,2.0,5.0,66,0.00,,,0.00,16.000000,,2013-03-09 05:53:00,
2013-03-08 20:01:00,75.0,63.0,-100.00,SW,232,2.0,5.0,66,0.00,,,0.00,16.000000,,2013-03-09 06:01:00,
2013-03-08 20:11:00,75.0,63.0,-100.00,SW,232,2.0,5.0,66,0.00,,,0.00,16.000000,,2013-03-09 06:11:00,
2013-03-08 20:42:00,74.0,61.0,-100.00,South,175,2.0,5.0,65,0.00,,,0.00,0.000000,,2013-03-09 06:42:00,
2013-03-08 20:52:00,74.0,61.0,-100.00,South,175,2.0,5.0,65,0.00,,,0.00,0.000000,,2013-03-09 06:52:00,
2013-03-08 21:01:00,74.0,61.0,-100.00,South,175,2.0,5.0,65,0.00,,,0.00,0.000000,,2013-03-09 07:01:00,
2013-03-08 21:11:00,74.0,61.0,-100.00,South,175,2.0,5.0,65,0.00,,,0.00,0.000000,,2013-03-09 07:11:00,
2013-03-08 21:21:00,74.0,61.0,-100.00,South,175,2.0,5.0,65,0.00,,,0.00,0.000000,,2013-03-09 07:21:00,
2013-03-08 21:42:00,73.0,64.0,-100.00,SE,137,3.0,9.0,73,0.00,,,0.00,0.000000,,2013-03-09 07:42:00,
2013-03-08 21:52:00,73.0,64.0,-100.00,SE,137,3.0,9.0,73,0.00,,,0.00,0.000000,,2013-03-09 07:52:00,
2013-03-08 22:01:00,73.0,64.0,-100.00,SE,137,3.0,9.0,73,0.00,,,0.00,0.000000,,2013-03-09 08:01:00,
2013-03-08 22:11:00,73.0,64.0,-100.00,SE,137,3.0,9.0,73,0.00,,,0.00,0.000000,,2013-03-09 08:11:00,
2013-03-08 22:21:00,73.0,64.0,-100.00,SE,137,3.0,9.0,73,0.00,,,0.00,0.000000,,2013-03-09 08:21:00,
2013-03-08 22:42:00,71.0,60.0,-100.00,ESE,113,3.0,10.0,69,0.00,,,0.00,0.000000,,2013-03-09 08:42:00,
2013-03-08 22:52:00,71.0,60.0,-100.00,ESE,113,3.0,10.0,69,0.00,,,0.00,0.000000,,2013-03-09 08:52:00,
2013-03-08 23:01:00,71.0,60.0,-100.00,ESE,113,3.0,10.0,69,0.00,,,0.00,0.000000,,2013-03-09 09:01:00,
2013-03-08 23:11:00,71.0,60.0,-100.00,ESE,113,3.0,10.0,69,0.00,,,0.00,0.000000,,2013-03-09 09:11:00,
2013-03-08 23:21:00,71.0,60.0,-100.00,ESE,113,3.0,10.0,69,0.00,,,0.00,0.000000,,2013-03-09 09:21:00,
2013-03-08 23:42:00,68.0,52.0,-100.00,ENE,76,4.0,10.0,56,0.00,,,0.00,0.000000,,2013-03-09 09:42:00,
2013-03-08 23:52:00,68.0,52.0,-100.00,ENE,76,4.0,10.0,56,0.00,,,0.00,0.000000,,2013-03-09 09:52:00,